sensor_id;sensor_type;location;lat;lon;timestamp;temperature;humidity
14995;DHT22;7593;49.006;8.372;2023-02-15T00:00:19;1.10;99.90
14995;DHT22;7593;49.006;8.372;2023-02-15T00:02:45;1.00;99.90
14995;DHT22;7593;49.006;8.372;2023-02-15T00:05:12;1.00;99.90
14995;DHT22;7593;49.006;8.372;2023-02-15T00:07:39;1.00;99.90
14995;DHT22;7593;49.006;8.372;2023-02-15T00:10:07;0.90;99.90
14995;DHT22;7593;49.006;8.372;2023-02-15T00:12:35;0.90;99.90
14995;DHT22;7593;49.006;8.372;2023-02-15T00:15:02;0.90;99.90
14995;DHT22;7593;49.006;8.372;2023-02-15T00:17:29;0.90;99.90
14995;DHT22;7593;49.006;8.372;2023-02-15T00:19:56;0.90;99.90
14995;DHT22;7593;49.006;8.372;2023-02-15T00:22:23;0.90;99.90
14995;DHT22;7593;49.006;8.372;2023-02-15T00:24:49;0.90;99.90
14995;DHT22;7593;49.006;8.372;2023-02-15T00:27:16;1.00;99.90
14995;DHT22;7593;49.006;8.372;2023-02-15T00:29:46;1.00;99.90
14995;DHT22;7593;49.006;8.372;2023-02-15T00:32:12;1.00;99.90
14995;DHT22;7593;49.006;8.372;2023-02-15T00:34:39;0.90;99.90
14995;DHT22;7593;49.006;8.372;2023-02-15T00:37:06;0.90;99.90
14995;DHT22;7593;49.006;8.372;2023-02-15T00:39:33;1.00;99.90
14995;DHT22;7593;49.006;8.372;2023-02-15T00:41:59;1.00;99.90
14995;DHT22;7593;49.006;8.372;2023-02-15T00:44:26;1.00;99.90
14995;DHT22;7593;49.006;8.372;2023-02-15T00:46:54;1.00;99.90
14995;DHT22;7593;49.006;8.372;2023-02-15T00:49:21;1.00;99.90
14995;DHT22;7593;49.006;8.372;2023-02-15T00:51:48;1.00;99.90
14995;DHT22;7593;49.006;8.372;2023-02-15T00:54:15;1.00;99.90
14995;DHT22;7593;49.006;8.372;2023-02-15T00:56:41;1.00;99.90
14995;DHT22;7593;49.006;8.372;2023-02-15T00:59:08;1.00;99.90
14995;DHT22;7593;49.006;8.372;2023-02-15T01:01:35;1.00;99.90
14995;DHT22;7593;49.006;8.372;2023-02-15T01:04:04;1.10;99.90
14995;DHT22;7593;49.006;8.372;2023-02-15T01:06:30;1.10;99.90
14995;DHT22;7593;49.006;8.372;2023-02-15T01:08:57;1.10;99.90
14995;DHT22;7593;49.006;8.372;2023-02-15T01:11:24;1.20;99.90
14995;DHT22;7593;49.006;8.372;2023-02-15T01:13:56;1.20;99.90
14995;DHT22;7593;49.006;8.372;2023-02-15T01:23:09;1.20;99.90
14995;DHT22;7593;49.006;8.372;2023-02-15T01:25:36;1.10;99.90
14995;DHT22;7593;49.006;8.372;2023-02-15T01:28:03;1.10;99.90
14995;DHT22;7593;49.006;8.372;2023-02-15T01:30:32;1.20;99.90
14995;DHT22;7593;49.006;8.372;2023-02-15T01:32:59;1.20;99.90
14995;DHT22;7593;49.006;8.372;2023-02-15T01:35:27;1.20;99.90
14995;DHT22;7593;49.006;8.372;2023-02-15T01:37:54;1.20;99.90
14995;DHT22;7593;49.006;8.372;2023-02-15T01:40:23;1.20;99.90
14995;DHT22;7593;49.006;8.372;2023-02-15T01:42:50;1.20;99.90
14995;DHT22;7593;49.006;8.372;2023-02-15T01:45:24;1.10;99.90
14995;DHT22;7593;49.006;8.372;2023-02-15T01:48:02;1.10;99.90
14995;DHT22;7593;49.006;8.372;2023-02-15T01:50:32;1.10;99.90
14995;DHT22;7593;49.006;8.372;2023-02-15T01:53:03;1.10;99.90
14995;DHT22;7593;49.006;8.372;2023-02-15T01:55:36;1.10;99.90
14995;DHT22;7593;49.006;8.372;2023-02-15T01:58:03;1.00;99.90
14995;DHT22;7593;49.006;8.372;2023-02-15T02:00:31;1.00;99.90
14995;DHT22;7593;49.006;8.372;2023-02-15T02:03:29;1.00;99.90
14995;DHT22;7593;49.006;8.372;2023-02-15T02:05:57;1.00;99.90
14995;DHT22;7593;49.006;8.372;2023-02-15T02:08:24;1.00;99.90
14995;DHT22;7593;49.006;8.372;2023-02-15T02:10:52;1.10;99.90
14995;DHT22;7593;49.006;8.372;2023-02-15T02:13:19;1.10;99.90
14995;DHT22;7593;49.006;8.372;2023-02-15T02:15:52;1.10;99.90
14995;DHT22;7593;49.006;8.372;2023-02-15T02:18:32;1.20;99.90
14995;DHT22;7593;49.006;8.372;2023-02-15T02:21:30;1.10;99.90
14995;DHT22;7593;49.006;8.372;2023-02-15T02:24:33;1.20;99.90
14995;DHT22;7593;49.006;8.372;2023-02-15T02:30:49;1.20;99.90
14995;DHT22;7593;49.006;8.372;2023-02-15T02:33:48;1.10;99.90
14995;DHT22;7593;49.006;8.372;2023-02-15T02:36:23;1.20;99.90
14995;DHT22;7593;49.006;8.372;2023-02-15T02:41:50;1.10;99.90
14995;DHT22;7593;49.006;8.372;2023-02-15T02:44:24;1.10;99.90
14995;DHT22;7593;49.006;8.372;2023-02-15T02:46:54;1.10;99.90
14995;DHT22;7593;49.006;8.372;2023-02-15T02:49:34;1.40;99.90
14995;DHT22;7593;49.006;8.372;2023-02-15T02:52:02;1.10;99.90
14995;DHT22;7593;49.006;8.372;2023-02-15T02:54:30;1.10;99.90
14995;DHT22;7593;49.006;8.372;2023-02-15T02:57:01;1.10;99.90
14995;DHT22;7593;49.006;8.372;2023-02-15T02:59:31;1.10;99.90
14995;DHT22;7593;49.006;8.372;2023-02-15T03:02:02;1.10;99.90
14995;DHT22;7593;49.006;8.372;2023-02-15T03:04:36;1.10;99.90
14995;DHT22;7593;49.006;8.372;2023-02-15T03:07:07;1.10;99.90
14995;DHT22;7593;49.006;8.372;2023-02-15T03:09:37;1.00;99.90
14995;DHT22;7593;49.006;8.372;2023-02-15T03:12:08;1.00;99.90
14995;DHT22;7593;49.006;8.372;2023-02-15T03:14:36;1.00;99.90
14995;DHT22;7593;49.006;8.372;2023-02-15T03:17:04;1.10;99.90
14995;DHT22;7593;49.006;8.372;2023-02-15T03:19:34;1.00;99.90
14995;DHT22;7593;49.006;8.372;2023-02-15T03:22:05;1.00;99.90
14995;DHT22;7593;49.006;8.372;2023-02-15T03:24:37;1.00;99.90
14995;DHT22;7593;49.006;8.372;2023-02-15T03:27:11;1.00;99.90
14995;DHT22;7593;49.006;8.372;2023-02-15T03:29:39;1.00;99.90
14995;DHT22;7593;49.006;8.372;2023-02-15T03:32:08;1.00;99.90
14995;DHT22;7593;49.006;8.372;2023-02-15T03:34:38;0.90;99.90
14995;DHT22;7593;49.006;8.372;2023-02-15T03:37:10;0.90;99.90
14995;DHT22;7593;49.006;8.372;2023-02-15T03:39:44;0.80;99.90
14995;DHT22;7593;49.006;8.372;2023-02-15T03:42:14;0.80;99.90
14995;DHT22;7593;49.006;8.372;2023-02-15T03:44:50;0.80;99.90
14995;DHT22;7593;49.006;8.372;2023-02-15T03:47:20;0.90;99.90
14995;DHT22;7593;49.006;8.372;2023-02-15T03:49:52;0.80;99.90
14995;DHT22;7593;49.006;8.372;2023-02-15T03:52:21;0.90;99.90
14995;DHT22;7593;49.006;8.372;2023-02-15T03:54:48;0.90;99.90
14995;DHT22;7593;49.006;8.372;2023-02-15T03:57:18;0.90;99.90
14995;DHT22;7593;49.006;8.372;2023-02-15T04:00:19;0.90;99.90
14995;DHT22;7593;49.006;8.372;2023-02-15T04:03:12;1.00;99.90
14995;DHT22;7593;49.006;8.372;2023-02-15T04:05:45;1.00;99.90
14995;DHT22;7593;49.006;8.372;2023-02-15T04:08:12;1.00;99.90
14995;DHT22;7593;49.006;8.372;2023-02-15T04:10:39;1.00;99.90
14995;DHT22;7593;49.006;8.372;2023-02-15T04:13:23;1.00;99.90
14995;DHT22;7593;49.006;8.372;2023-02-15T04:15:50;1.00;99.90
14995;DHT22;7593;49.006;8.372;2023-02-15T04:18:32;1.10;99.90
14995;DHT22;7593;49.006;8.372;2023-02-15T04:21:18;1.10;99.90
14995;DHT22;7593;49.006;8.372;2023-02-15T04:24:03;1.10;99.90
14995;DHT22;7593;49.006;8.372;2023-02-15T04:26:47;1.10;99.90
14995;DHT22;7593;49.006;8.372;2023-02-15T04:29:14;1.00;99.90
14995;DHT22;7593;49.006;8.372;2023-02-15T04:31:41;0.90;99.90
14995;DHT22;7593;49.006;8.372;2023-02-15T04:34:09;0.90;99.90
14995;DHT22;7593;49.006;8.372;2023-02-15T04:36:37;0.80;99.90
14995;DHT22;7593;49.006;8.372;2023-02-15T04:39:05;0.80;99.90
14995;DHT22;7593;49.006;8.372;2023-02-15T04:41:32;0.80;99.90
14995;DHT22;7593;49.006;8.372;2023-02-15T04:43:59;0.80;99.90
14995;DHT22;7593;49.006;8.372;2023-02-15T04:46:27;0.90;99.90
14995;DHT22;7593;49.006;8.372;2023-02-15T04:48:56;0.80;99.90
14995;DHT22;7593;49.006;8.372;2023-02-15T04:51:23;0.80;99.90
14995;DHT22;7593;49.006;8.372;2023-02-15T04:53:52;0.80;99.90
14995;DHT22;7593;49.006;8.372;2023-02-15T04:56:19;0.80;99.90
14995;DHT22;7593;49.006;8.372;2023-02-15T04:58:46;0.90;99.90
14995;DHT22;7593;49.006;8.372;2023-02-15T05:01:13;0.80;99.90
14995;DHT22;7593;49.006;8.372;2023-02-15T05:03:40;0.90;99.90
14995;DHT22;7593;49.006;8.372;2023-02-15T05:06:07;0.90;99.90
14995;DHT22;7593;49.006;8.372;2023-02-15T05:08:34;0.90;99.90
14995;DHT22;7593;49.006;8.372;2023-02-15T05:11:02;0.80;99.90
14995;DHT22;7593;49.006;8.372;2023-02-15T05:13:29;0.90;99.90
14995;DHT22;7593;49.006;8.372;2023-02-15T05:15:56;0.90;99.90
14995;DHT22;7593;49.006;8.372;2023-02-15T05:18:23;0.90;99.90
14995;DHT22;7593;49.006;8.372;2023-02-15T05:20:50;0.90;99.90
14995;DHT22;7593;49.006;8.372;2023-02-15T05:23:17;0.80;99.90
14995;DHT22;7593;49.006;8.372;2023-02-15T05:25:47;0.80;99.90
14995;DHT22;7593;49.006;8.372;2023-02-15T05:28:32;0.80;99.90
14995;DHT22;7593;49.006;8.372;2023-02-15T05:31:05;0.80;99.90
14995;DHT22;7593;49.006;8.372;2023-02-15T05:33:33;0.80;99.90
14995;DHT22;7593;49.006;8.372;2023-02-15T05:36:00;0.80;99.90
14995;DHT22;7593;49.006;8.372;2023-02-15T05:38:27;0.70;99.90
14995;DHT22;7593;49.006;8.372;2023-02-15T05:40:54;0.80;99.90
14995;DHT22;7593;49.006;8.372;2023-02-15T05:43:22;0.80;99.90
14995;DHT22;7593;49.006;8.372;2023-02-15T05:45:51;0.80;99.90
14995;DHT22;7593;49.006;8.372;2023-02-15T05:48:19;0.80;99.90
14995;DHT22;7593;49.006;8.372;2023-02-15T05:50:55;0.80;99.90
14995;DHT22;7593;49.006;8.372;2023-02-15T05:53:22;0.90;99.90
14995;DHT22;7593;49.006;8.372;2023-02-15T05:55:49;0.80;99.90
14995;DHT22;7593;49.006;8.372;2023-02-15T05:58:16;0.80;99.90
14995;DHT22;7593;49.006;8.372;2023-02-15T06:00:43;0.80;99.90
14995;DHT22;7593;49.006;8.372;2023-02-15T06:03:11;0.80;99.90
14995;DHT22;7593;49.006;8.372;2023-02-15T06:05:37;0.70;99.90
14995;DHT22;7593;49.006;8.372;2023-02-15T06:08:05;0.60;99.90
14995;DHT22;7593;49.006;8.372;2023-02-15T06:10:31;0.60;99.90
14995;DHT22;7593;49.006;8.372;2023-02-15T06:12:58;0.60;99.90
14995;DHT22;7593;49.006;8.372;2023-02-15T06:15:25;0.60;99.90
14995;DHT22;7593;49.006;8.372;2023-02-15T06:17:52;0.60;99.90
14995;DHT22;7593;49.006;8.372;2023-02-15T06:20:20;0.50;99.90
14995;DHT22;7593;49.006;8.372;2023-02-15T06:22:46;0.40;99.90
14995;DHT22;7593;49.006;8.372;2023-02-15T06:25:13;0.30;99.90
14995;DHT22;7593;49.006;8.372;2023-02-15T06:27:41;0.20;99.90
14995;DHT22;7593;49.006;8.372;2023-02-15T06:30:10;0.10;99.90
14995;DHT22;7593;49.006;8.372;2023-02-15T06:32:37;0.20;99.90
14995;DHT22;7593;49.006;8.372;2023-02-15T06:35:04;0.20;99.90
14995;DHT22;7593;49.006;8.372;2023-02-15T06:37:33;0.20;99.90
14995;DHT22;7593;49.006;8.372;2023-02-15T06:40:00;0.20;99.90
14995;DHT22;7593;49.006;8.372;2023-02-15T06:42:27;0.20;99.90
14995;DHT22;7593;49.006;8.372;2023-02-15T06:44:53;0.20;99.90
14995;DHT22;7593;49.006;8.372;2023-02-15T06:47:20;0.20;99.90
14995;DHT22;7593;49.006;8.372;2023-02-15T06:49:47;0.20;99.90
14995;DHT22;7593;49.006;8.372;2023-02-15T06:52:14;0.30;99.90
14995;DHT22;7593;49.006;8.372;2023-02-15T06:54:42;0.40;99.90
14995;DHT22;7593;49.006;8.372;2023-02-15T06:57:09;0.40;99.90
14995;DHT22;7593;49.006;8.372;2023-02-15T06:59:36;0.40;99.90
14995;DHT22;7593;49.006;8.372;2023-02-15T07:02:03;0.40;99.90
14995;DHT22;7593;49.006;8.372;2023-02-15T07:04:30;0.40;99.90
14995;DHT22;7593;49.006;8.372;2023-02-15T07:06:56;0.50;99.90
14995;DHT22;7593;49.006;8.372;2023-02-15T07:09:23;0.50;99.90
14995;DHT22;7593;49.006;8.372;2023-02-15T07:11:51;0.50;99.90
14995;DHT22;7593;49.006;8.372;2023-02-15T07:14:36;0.60;99.90
14995;DHT22;7593;49.006;8.372;2023-02-15T07:17:03;0.60;99.90
14995;DHT22;7593;49.006;8.372;2023-02-15T07:19:30;0.60;99.90
14995;DHT22;7593;49.006;8.372;2023-02-15T07:21:57;0.50;99.90
14995;DHT22;7593;49.006;8.372;2023-02-15T07:24:23;0.50;99.90
14995;DHT22;7593;49.006;8.372;2023-02-15T07:26:52;0.50;99.90
14995;DHT22;7593;49.006;8.372;2023-02-15T07:29:19;0.50;99.90
14995;DHT22;7593;49.006;8.372;2023-02-15T07:31:46;0.50;99.90
14995;DHT22;7593;49.006;8.372;2023-02-15T07:34:14;0.60;99.90
14995;DHT22;7593;49.006;8.372;2023-02-15T07:36:41;0.60;99.90
14995;DHT22;7593;49.006;8.372;2023-02-15T07:39:09;0.60;99.90
14995;DHT22;7593;49.006;8.372;2023-02-15T07:41:36;0.60;99.90
14995;DHT22;7593;49.006;8.372;2023-02-15T07:44:04;0.60;99.90
14995;DHT22;7593;49.006;8.372;2023-02-15T07:46:31;0.70;99.90
14995;DHT22;7593;49.006;8.372;2023-02-15T07:49:01;0.70;99.90
14995;DHT22;7593;49.006;8.372;2023-02-15T07:51:29;0.70;99.90
14995;DHT22;7593;49.006;8.372;2023-02-15T07:53:55;0.70;99.90
14995;DHT22;7593;49.006;8.372;2023-02-15T07:56:22;0.70;99.90
14995;DHT22;7593;49.006;8.372;2023-02-15T07:59:01;0.70;99.90
14995;DHT22;7593;49.006;8.372;2023-02-15T08:01:32;0.70;99.90
14995;DHT22;7593;49.006;8.372;2023-02-15T08:04:00;0.60;99.90
14995;DHT22;7593;49.006;8.372;2023-02-15T08:06:29;0.60;99.90
14995;DHT22;7593;49.006;8.372;2023-02-15T08:08:56;0.50;99.90
14995;DHT22;7593;49.006;8.372;2023-02-15T08:11:24;0.50;99.90
14995;DHT22;7593;49.006;8.372;2023-02-15T08:14:04;0.50;99.90
14995;DHT22;7593;49.006;8.372;2023-02-15T08:16:34;0.50;99.90
14995;DHT22;7593;49.006;8.372;2023-02-15T08:19:04;0.60;99.90
14995;DHT22;7593;49.006;8.372;2023-02-15T08:21:33;0.60;99.90
14995;DHT22;7593;49.006;8.372;2023-02-15T08:24:00;0.70;99.90
14995;DHT22;7593;49.006;8.372;2023-02-15T08:26:27;0.70;99.90
14995;DHT22;7593;49.006;8.372;2023-02-15T08:28:55;0.70;99.90
14995;DHT22;7593;49.006;8.372;2023-02-15T08:31:21;0.70;99.90
14995;DHT22;7593;49.006;8.372;2023-02-15T08:33:51;0.80;99.90
14995;DHT22;7593;49.006;8.372;2023-02-15T08:36:20;0.80;99.90
14995;DHT22;7593;49.006;8.372;2023-02-15T08:38:47;0.80;99.90
14995;DHT22;7593;49.006;8.372;2023-02-15T08:41:16;0.90;99.90
14995;DHT22;7593;49.006;8.372;2023-02-15T08:43:46;0.80;99.90
14995;DHT22;7593;49.006;8.372;2023-02-15T08:46:14;0.80;99.90
14995;DHT22;7593;49.006;8.372;2023-02-15T08:48:41;0.80;99.90
14995;DHT22;7593;49.006;8.372;2023-02-15T08:51:12;0.80;99.90
14995;DHT22;7593;49.006;8.372;2023-02-15T08:53:39;0.90;99.90
14995;DHT22;7593;49.006;8.372;2023-02-15T08:56:07;0.90;99.90
14995;DHT22;7593;49.006;8.372;2023-02-15T08:58:34;1.00;99.90
14995;DHT22;7593;49.006;8.372;2023-02-15T09:01:08;1.00;99.90
14995;DHT22;7593;49.006;8.372;2023-02-15T09:03:35;1.10;99.90
14995;DHT22;7593;49.006;8.372;2023-02-15T09:06:02;1.20;99.90
14995;DHT22;7593;49.006;8.372;2023-02-15T09:08:31;1.20;99.90
14995;DHT22;7593;49.006;8.372;2023-02-15T09:11:06;1.30;99.90
14995;DHT22;7593;49.006;8.372;2023-02-15T09:13:33;1.50;99.90
14995;DHT22;7593;49.006;8.372;2023-02-15T09:16:01;1.20;99.90
14995;DHT22;7593;49.006;8.372;2023-02-15T09:18:29;1.30;99.90
14995;DHT22;7593;49.006;8.372;2023-02-15T09:20:57;1.30;99.90
14995;DHT22;7593;49.006;8.372;2023-02-15T09:23:30;1.30;99.90
14995;DHT22;7593;49.006;8.372;2023-02-15T09:26:03;1.30;99.90
14995;DHT22;7593;49.006;8.372;2023-02-15T09:28:30;1.30;99.90
14995;DHT22;7593;49.006;8.372;2023-02-15T09:31:04;1.40;99.90
14995;DHT22;7593;49.006;8.372;2023-02-15T09:33:33;1.30;99.90
14995;DHT22;7593;49.006;8.372;2023-02-15T09:36:00;1.30;99.90
14995;DHT22;7593;49.006;8.372;2023-02-15T09:38:26;1.40;99.90
14995;DHT22;7593;49.006;8.372;2023-02-15T09:41:05;1.40;99.90
14995;DHT22;7593;49.006;8.372;2023-02-15T09:43:40;1.40;99.90
14995;DHT22;7593;49.006;8.372;2023-02-15T09:46:34;1.40;99.90
14995;DHT22;7593;49.006;8.372;2023-02-15T09:49:13;1.50;99.90
14995;DHT22;7593;49.006;8.372;2023-02-15T09:52:13;1.60;99.90
14995;DHT22;7593;49.006;8.372;2023-02-15T09:54:57;1.60;99.90
14995;DHT22;7593;49.006;8.372;2023-02-15T09:57:33;1.70;99.90
14995;DHT22;7593;49.006;8.372;2023-02-15T10:00:10;1.70;99.90
14995;DHT22;7593;49.006;8.372;2023-02-15T10:02:57;1.70;99.90
14995;DHT22;7593;49.006;8.372;2023-02-15T10:05:37;1.80;99.90
14995;DHT22;7593;49.006;8.372;2023-02-15T10:08:22;1.80;99.90
14995;DHT22;7593;49.006;8.372;2023-02-15T10:10:57;1.80;99.90
14995;DHT22;7593;49.006;8.372;2023-02-15T10:13:53;1.80;99.90
14995;DHT22;7593;49.006;8.372;2023-02-15T10:16:28;1.90;99.90
14995;DHT22;7593;49.006;8.372;2023-02-15T10:19:03;2.00;99.90
14995;DHT22;7593;49.006;8.372;2023-02-15T10:21:43;2.00;99.90
14995;DHT22;7593;49.006;8.372;2023-02-15T10:27:18;2.10;99.90
14995;DHT22;7593;49.006;8.372;2023-02-15T10:29:53;2.10;99.90
14995;DHT22;7593;49.006;8.372;2023-02-15T10:32:23;2.10;99.90
14995;DHT22;7593;49.006;8.372;2023-02-15T10:34:51;2.10;99.90
14995;DHT22;7593;49.006;8.372;2023-02-15T10:40:15;2.20;99.90
14995;DHT22;7593;49.006;8.372;2023-02-15T10:42:56;2.30;99.90
14995;DHT22;7593;49.006;8.372;2023-02-15T10:45:31;2.40;99.90
14995;DHT22;7593;49.006;8.372;2023-02-15T10:50:54;2.40;99.90
14995;DHT22;7593;49.006;8.372;2023-02-15T10:53:55;2.40;99.90
14995;DHT22;7593;49.006;8.372;2023-02-15T10:56:28;2.50;99.90
14995;DHT22;7593;49.006;8.372;2023-02-15T10:59:14;2.50;99.90
14995;DHT22;7593;49.006;8.372;2023-02-15T11:01:47;2.40;99.90
14995;DHT22;7593;49.006;8.372;2023-02-15T11:04:38;2.40;99.90
14995;DHT22;7593;49.006;8.372;2023-02-15T11:07:15;2.40;99.90
14995;DHT22;7593;49.006;8.372;2023-02-15T11:09:46;2.50;99.90
14995;DHT22;7593;49.006;8.372;2023-02-15T11:12:25;2.50;99.90
14995;DHT22;7593;49.006;8.372;2023-02-15T11:15:00;2.60;99.90
14995;DHT22;7593;49.006;8.372;2023-02-15T11:17:35;2.60;99.90
14995;DHT22;7593;49.006;8.372;2023-02-15T11:20:14;2.60;99.90
14995;DHT22;7593;49.006;8.372;2023-02-15T11:22:47;2.70;99.90
14995;DHT22;7593;49.006;8.372;2023-02-15T11:25:19;2.70;99.90
14995;DHT22;7593;49.006;8.372;2023-02-15T11:27:47;2.80;99.90
14995;DHT22;7593;49.006;8.372;2023-02-15T11:30:19;2.80;99.90
14995;DHT22;7593;49.006;8.372;2023-02-15T11:32:49;2.90;99.90
14995;DHT22;7593;49.006;8.372;2023-02-15T11:35:22;2.90;99.90
14995;DHT22;7593;49.006;8.372;2023-02-15T11:37:53;3.00;99.90
14995;DHT22;7593;49.006;8.372;2023-02-15T11:40:27;3.00;99.90
14995;DHT22;7593;49.006;8.372;2023-02-15T11:43:00;3.10;99.90
14995;DHT22;7593;49.006;8.372;2023-02-15T11:45:29;3.10;99.90
14995;DHT22;7593;49.006;8.372;2023-02-15T11:48:05;3.10;99.90
14995;DHT22;7593;49.006;8.372;2023-02-15T11:50:35;3.10;99.90
14995;DHT22;7593;49.006;8.372;2023-02-15T11:53:13;3.10;99.90
14995;DHT22;7593;49.006;8.372;2023-02-15T11:55:46;3.20;99.90
14995;DHT22;7593;49.006;8.372;2023-02-15T11:58:23;3.20;99.90
14995;DHT22;7593;49.006;8.372;2023-02-15T12:00:58;3.20;99.90
14995;DHT22;7593;49.006;8.372;2023-02-15T12:03:39;3.20;99.90
14995;DHT22;7593;49.006;8.372;2023-02-15T12:06:18;3.30;99.90
14995;DHT22;7593;49.006;8.372;2023-02-15T12:08:52;3.40;99.90
14995;DHT22;7593;49.006;8.372;2023-02-15T12:11:25;3.50;99.90
14995;DHT22;7593;49.006;8.372;2023-02-15T12:13:57;3.60;99.90
14995;DHT22;7593;49.006;8.372;2023-02-15T12:16:25;3.70;99.90
14995;DHT22;7593;49.006;8.372;2023-02-15T12:18:56;3.80;99.90
14995;DHT22;7593;49.006;8.372;2023-02-15T12:21:27;3.80;99.90
14995;DHT22;7593;49.006;8.372;2023-02-15T12:23:56;4.00;99.90
14995;DHT22;7593;49.006;8.372;2023-02-15T12:26:25;4.20;99.90
14995;DHT22;7593;49.006;8.372;2023-02-15T12:28:52;4.50;99.90
14995;DHT22;7593;49.006;8.372;2023-02-15T12:31:22;4.70;99.90
14995;DHT22;7593;49.006;8.372;2023-02-15T12:33:52;4.90;99.90
14995;DHT22;7593;49.006;8.372;2023-02-15T12:36:22;5.20;99.90
14995;DHT22;7593;49.006;8.372;2023-02-15T12:39:03;5.60;99.90
14995;DHT22;7593;49.006;8.372;2023-02-15T12:41:30;5.80;99.90
14995;DHT22;7593;49.006;8.372;2023-02-15T12:44:05;6.00;99.90
14995;DHT22;7593;49.006;8.372;2023-02-15T12:46:33;6.40;99.90
14995;DHT22;7593;49.006;8.372;2023-02-15T12:49:14;6.90;99.90
14995;DHT22;7593;49.006;8.372;2023-02-15T12:51:46;7.40;99.90
14995;DHT22;7593;49.006;8.372;2023-02-15T12:57:29;8.20;99.90
14995;DHT22;7593;49.006;8.372;2023-02-15T12:59:58;8.70;99.90
14995;DHT22;7593;49.006;8.372;2023-02-15T13:02:34;8.90;99.90
14995;DHT22;7593;49.006;8.372;2023-02-15T13:05:16;9.30;99.90
14995;DHT22;7593;49.006;8.372;2023-02-15T13:07:50;9.70;99.90
14995;DHT22;7593;49.006;8.372;2023-02-15T13:10:25;9.80;99.90
14995;DHT22;7593;49.006;8.372;2023-02-15T13:12:54;9.90;99.90
14995;DHT22;7593;49.006;8.372;2023-02-15T13:15:35;10.00;99.90
14995;DHT22;7593;49.006;8.372;2023-02-15T13:18:04;10.20;99.90
14995;DHT22;7593;49.006;8.372;2023-02-15T13:20:32;10.50;99.90
14995;DHT22;7593;49.006;8.372;2023-02-15T13:23:06;10.60;99.90
14995;DHT22;7593;49.006;8.372;2023-02-15T13:25:43;10.90;99.90
14995;DHT22;7593;49.006;8.372;2023-02-15T13:28:16;10.90;99.90
14995;DHT22;7593;49.006;8.372;2023-02-15T13:30:46;11.10;99.90
14995;DHT22;7593;49.006;8.372;2023-02-15T13:33:17;11.50;99.90
14995;DHT22;7593;49.006;8.372;2023-02-15T13:35:50;11.30;99.90
14995;DHT22;7593;49.006;8.372;2023-02-15T13:38:40;11.30;99.90
14995;DHT22;7593;49.006;8.372;2023-02-15T13:41:12;11.50;99.90
14995;DHT22;7593;49.006;8.372;2023-02-15T13:43:50;11.70;99.90
14995;DHT22;7593;49.006;8.372;2023-02-15T13:46:27;11.70;99.90
14995;DHT22;7593;49.006;8.372;2023-02-15T13:49:07;11.80;99.90
14995;DHT22;7593;49.006;8.372;2023-02-15T13:51:45;12.00;99.90
14995;DHT22;7593;49.006;8.372;2023-02-15T13:54:40;11.90;99.90
14995;DHT22;7593;49.006;8.372;2023-02-15T13:57:29;11.90;99.90
14995;DHT22;7593;49.006;8.372;2023-02-15T14:00:10;11.70;99.90
14995;DHT22;7593;49.006;8.372;2023-02-15T14:03:04;11.70;99.90
14995;DHT22;7593;49.006;8.372;2023-02-15T14:05:54;11.90;99.90
14995;DHT22;7593;49.006;8.372;2023-02-15T14:08:37;11.70;99.90
14995;DHT22;7593;49.006;8.372;2023-02-15T14:11:12;11.70;99.90
14995;DHT22;7593;49.006;8.372;2023-02-15T14:14:08;11.80;99.90
14995;DHT22;7593;49.006;8.372;2023-02-15T14:16:45;12.10;99.90
14995;DHT22;7593;49.006;8.372;2023-02-15T14:19:22;12.50;99.90
14995;DHT22;7593;49.006;8.372;2023-02-15T14:21:55;12.50;99.90
14995;DHT22;7593;49.006;8.372;2023-02-15T14:24:30;12.30;99.90
14995;DHT22;7593;49.006;8.372;2023-02-15T14:27:08;12.30;99.90
14995;DHT22;7593;49.006;8.372;2023-02-15T14:29:46;12.40;99.90
14995;DHT22;7593;49.006;8.372;2023-02-15T14:32:18;12.40;99.90
14995;DHT22;7593;49.006;8.372;2023-02-15T14:34:50;12.20;99.90
14995;DHT22;7593;49.006;8.372;2023-02-15T14:37:23;12.30;99.90
14995;DHT22;7593;49.006;8.372;2023-02-15T14:39:56;12.40;99.90
14995;DHT22;7593;49.006;8.372;2023-02-15T14:42:48;12.30;99.90
14995;DHT22;7593;49.006;8.372;2023-02-15T14:45:20;11.80;99.90
14995;DHT22;7593;49.006;8.372;2023-02-15T14:47:54;11.40;99.90
14995;DHT22;7593;49.006;8.372;2023-02-15T14:50:41;10.90;99.90
14995;DHT22;7593;49.006;8.372;2023-02-15T14:53:16;10.80;99.90
14995;DHT22;7593;49.006;8.372;2023-02-15T14:55:43;11.10;99.90
14995;DHT22;7593;49.006;8.372;2023-02-15T14:58:12;11.20;99.90
14995;DHT22;7593;49.006;8.372;2023-02-15T15:00:40;11.40;99.90
14995;DHT22;7593;49.006;8.372;2023-02-15T15:03:19;11.40;99.90
14995;DHT22;7593;49.006;8.372;2023-02-15T15:05:49;11.10;99.90
14995;DHT22;7593;49.006;8.372;2023-02-15T15:08:25;10.90;99.90
14995;DHT22;7593;49.006;8.372;2023-02-15T15:10:52;10.90;99.90
14995;DHT22;7593;49.006;8.372;2023-02-15T15:13:54;11.10;99.90
14995;DHT22;7593;49.006;8.372;2023-02-15T15:16:49;11.20;99.90
14995;DHT22;7593;49.006;8.372;2023-02-15T15:22:39;11.30;99.90
14995;DHT22;7593;49.006;8.372;2023-02-15T15:25:10;11.10;99.90
14995;DHT22;7593;49.006;8.372;2023-02-15T15:27:48;10.80;99.90
14995;DHT22;7593;49.006;8.372;2023-02-15T15:37:15;9.10;99.90
14995;DHT22;7593;49.006;8.372;2023-02-15T15:42:51;7.80;99.90
14995;DHT22;7593;49.006;8.372;2023-02-15T15:45:50;7.50;99.90
14995;DHT22;7593;49.006;8.372;2023-02-15T15:48:32;7.30;99.90
14995;DHT22;7593;49.006;8.372;2023-02-15T15:51:03;7.10;99.90
14995;DHT22;7593;49.006;8.372;2023-02-15T15:53:38;6.90;99.90
14995;DHT22;7593;49.006;8.372;2023-02-15T15:56:12;6.70;99.90
14995;DHT22;7593;49.006;8.372;2023-02-15T15:58:44;6.50;99.90
14995;DHT22;7593;49.006;8.372;2023-02-15T16:01:12;6.30;99.90
14995;DHT22;7593;49.006;8.372;2023-02-15T16:03:49;6.10;99.90
14995;DHT22;7593;49.006;8.372;2023-02-15T16:06:28;5.90;99.90
14995;DHT22;7593;49.006;8.372;2023-02-15T16:08:56;5.70;99.90
14995;DHT22;7593;49.006;8.372;2023-02-15T16:11:25;5.60;99.90
14995;DHT22;7593;49.006;8.372;2023-02-15T16:13:53;5.50;99.90
14995;DHT22;7593;49.006;8.372;2023-02-15T16:16:22;5.40;99.90
14995;DHT22;7593;49.006;8.372;2023-02-15T16:18:49;5.20;99.90
14995;DHT22;7593;49.006;8.372;2023-02-15T16:21:19;5.10;99.90
14995;DHT22;7593;49.006;8.372;2023-02-15T16:24:07;4.90;99.90
14995;DHT22;7593;49.006;8.372;2023-02-15T16:26:58;4.80;99.90
14995;DHT22;7593;49.006;8.372;2023-02-15T16:29:29;4.70;99.90
14995;DHT22;7593;49.006;8.372;2023-02-15T16:31:59;4.60;99.90
14995;DHT22;7593;49.006;8.372;2023-02-15T16:34:26;4.50;99.90
14995;DHT22;7593;49.006;8.372;2023-02-15T16:37:12;4.40;99.90
14995;DHT22;7593;49.006;8.372;2023-02-15T16:39:42;4.40;99.90
14995;DHT22;7593;49.006;8.372;2023-02-15T16:42:11;4.30;99.90
14995;DHT22;7593;49.006;8.372;2023-02-15T16:44:39;4.30;99.90
14995;DHT22;7593;49.006;8.372;2023-02-15T16:47:14;4.20;99.90
14995;DHT22;7593;49.006;8.372;2023-02-15T16:49:44;4.10;99.90
14995;DHT22;7593;49.006;8.372;2023-02-15T16:52:15;4.00;99.90
14995;DHT22;7593;49.006;8.372;2023-02-15T16:54:50;3.90;99.90
14995;DHT22;7593;49.006;8.372;2023-02-15T16:57:20;3.80;99.90
14995;DHT22;7593;49.006;8.372;2023-02-15T16:59:48;3.70;99.90
14995;DHT22;7593;49.006;8.372;2023-02-15T17:02:19;3.70;99.90
14995;DHT22;7593;49.006;8.372;2023-02-15T17:05:04;3.70;99.90
14995;DHT22;7593;49.006;8.372;2023-02-15T17:07:32;3.60;99.90
14995;DHT22;7593;49.006;8.372;2023-02-15T17:10:01;3.50;99.90